Time;durP1;ratioP1;P1;durP2;ratioP2;P2;SDS_P1;SDS_P2;PMS_P1;PMS_P2;Temp;Humidity;BMP_temperature;BMP_pressure;BME280_temperature;BME280_humidity;BME280_pressure;Samples;Min_cycle;Max_cycle;Signal;HPM_P1;HPM_P2
2023/09/05 00:00:28;;;;;;;4.53;3.47;;;;;;;16.04;93.38;101575.41;5092293;28;20308;-79
2023/09/05 00:02:54;;;;;;;4.10;3.67;;;;;;;16.02;93.54;101579.16;5093649;28;20207;-78
2023/09/05 00:05:21;;;;;;;3.80;3.50;;;;;;;16.00;93.27;101571.19;5092586;28;20212;-78
2023/09/05 00:07:48;;;;;;;3.30;3.00;;;;;;;15.98;93.34;101573.13;5093925;28;20213;-79
2023/09/05 00:10:15;;;;;;;3.53;3.23;;;;;;;15.98;93.42;101576.69;5094515;28;20249;-78
2023/09/05 00:12:43;;;;;;;5.67;3.90;;;;;;;15.94;92.99;101577.88;5091563;28;20237;-78
2023/09/05 00:15:13;;;;;;;4.13;3.73;;;;;;;15.90;92.50;101584.44;5093315;28;20206;-78
2023/09/05 00:17:40;;;;;;;3.73;3.33;;;;;;;15.87;92.49;101576.59;5091303;28;20210;-79
2023/09/05 00:20:08;;;;;;;5.53;3.93;;;;;;;15.83;92.58;101574.22;5093069;28;20226;-78
2023/09/05 00:22:35;;;;;;;4.23;3.60;;;;;;;15.80;92.69;101575.31;5088989;28;20222;-78
2023/09/05 00:25:02;;;;;;;4.13;3.60;;;;;;;15.79;92.93;101578.09;5093567;28;20210;-79
2023/09/05 00:27:29;;;;;;;4.77;3.83;;;;;;;15.78;92.60;101573.69;5084624;28;20220;-78
2023/09/05 00:29:57;;;;;;;5.10;3.90;;;;;;;15.75;92.74;101577.47;5088444;28;20214;-77
2023/09/05 00:32:24;;;;;;;4.13;3.50;;;;;;;15.73;92.86;101576.72;5088735;28;20870;-79
2023/09/05 00:34:51;;;;;;;5.17;3.60;;;;;;;15.70;92.44;101574.25;5086882;28;20213;-78
2023/09/05 00:37:22;;;;;;;4.50;4.03;;;;;;;15.68;92.62;101562.75;5092846;28;20213;-79
2023/09/05 00:39:48;;;;;;;4.77;3.23;;;;;;;15.67;92.95;101565.53;5088515;28;20206;-79
2023/09/05 00:42:15;;;;;;;6.10;3.90;;;;;;;15.65;92.88;101570.16;5092173;28;20201;-77
2023/09/05 00:44:43;;;;;;;4.33;3.50;;;;;;;15.61;92.46;101570.34;5088540;28;20536;-79
2023/09/05 00:47:12;;;;;;;5.13;3.63;;;;;;;15.54;91.34;101569.06;5091802;28;20209;-79
2023/09/05 00:49:41;;;;;;;5.03;3.63;;;;;;;15.48;90.58;101561.41;5089264;28;20221;-77
2023/09/05 00:52:09;;;;;;;4.07;3.67;;;;;;;15.38;90.48;101572.91;5088440;28;20230;-78
2023/09/05 00:54:37;;;;;;;5.07;4.20;;;;;;;15.30;91.91;101570.72;5088743;28;20298;-78
2023/09/05 00:57:04;;;;;;;5.07;4.57;;;;;;;15.26;92.34;101564.72;5089928;28;20209;-78
2023/09/05 00:59:30;;;;;;;5.73;4.17;;;;;;;15.24;92.77;101563.94;5093788;28;20209;-77
2023/09/05 01:01:57;;;;;;;4.87;4.30;;;;;;;15.23;92.98;101564.91;5093180;28;20251;-77
2023/09/05 01:04:24;;;;;;;7.03;4.40;;;;;;;15.22;93.63;101557.00;5089948;28;20201;-78
2023/09/05 01:06:59;;;;;;;4.70;4.30;;;;;;;15.22;93.84;101548.94;5096309;28;20211;-78
2023/09/05 01:09:36;;;;;;;5.50;4.37;;;;;;;15.21;94.00;101549.91;5089213;28;20208;-78
2023/09/05 01:12:03;;;;;;;4.43;4.03;;;;;;;15.19;94.18;101555.38;5092945;28;20225;-79
2023/09/05 01:14:30;;;;;;;6.90;3.80;;;;;;;15.18;94.02;101559.03;5090764;28;20233;-79
2023/09/05 01:17:01;;;;;;;5.17;3.87;;;;;;;15.14;93.12;101557.50;5089561;28;20591;-79
2023/09/05 01:19:29;;;;;;;4.33;3.57;;;;;;;15.07;92.34;101561.56;5089724;28;20227;-77
2023/09/05 01:22:07;;;;;;;4.77;3.80;;;;;;;15.03;92.33;101561.91;5088227;28;20596;-79
2023/09/05 01:24:35;;;;;;;4.77;3.53;;;;;;;14.96;92.00;101561.44;5084825;28;20194;-78
2023/09/05 01:27:03;;;;;;;3.30;3.00;;;;;;;14.93;91.71;101565.19;5085387;28;20227;-78
2023/09/05 01:29:35;;;;;;;3.60;3.23;;;;;;;14.91;92.01;101560.88;5090940;28;20255;-77
2023/09/05 01:32:02;;;;;;;3.37;3.07;;;;;;;14.87;91.27;101564.72;5091996;28;20255;-78
2023/09/05 01:34:29;;;;;;;3.87;3.50;;;;;;;14.82;90.83;101569.56;5097389;28;20233;-79
2023/09/05 01:36:55;;;;;;;4.17;3.57;;;;;;;14.78;91.16;101559.97;5094516;28;20653;-79
2023/09/05 01:39:22;;;;;;;3.83;3.33;;;;;;;14.74;91.03;101558.47;5091262;28;20216;-78
2023/09/05 01:41:50;;;;;;;4.50;4.10;;;;;;;14.70;91.87;101551.56;5089399;28;20239;-79
2023/09/05 01:44:16;;;;;;;5.07;3.60;;;;;;;14.68;93.09;101557.06;5087513;28;20193;-78
2023/09/05 01:46:43;;;;;;;4.73;3.80;;;;;;;14.68;93.21;101562.44;5088656;28;20204;-78
2023/09/05 01:49:09;;;;;;;6.30;3.93;;;;;;;14.67;93.38;101551.81;5089332;28;20209;-78
2023/09/05 01:51:36;;;;;;;4.30;3.90;;;;;;;14.66;93.80;101556.31;5082958;28;20225;-79
2023/09/05 01:54:02;;;;;;;5.03;3.57;;;;;;;14.61;93.88;101552.19;5085654;28;20256;-78
2023/09/05 01:56:29;;;;;;;5.30;3.30;;;;;;;14.57;93.42;101556.88;5086977;28;20215;-79
2023/09/05 01:58:57;;;;;;;4.00;3.60;;;;;;;14.51;92.83;101555.47;5085255;28;20209;-78
2023/09/05 02:01:23;;;;;;;5.07;3.50;;;;;;;14.46;93.04;101560.28;5089761;28;20228;-77
2023/09/05 02:03:50;;;;;;;4.50;3.33;;;;;;;14.39;93.25;101548.19;5086337;28;20204;-78
2023/09/05 02:06:16;;;;;;;4.80;3.87;;;;;;;14.34;94.04;101547.63;5090244;28;20219;-80
2023/09/05 02:08:43;;;;;;;4.47;4.07;;;;;;;14.31;95.12;101545.16;5088583;28;20779;-78
2023/09/05 02:11:10;;;;;;;5.10;4.10;;;;;;;14.31;96.11;101550.53;5088823;28;20606;-79
2023/09/05 02:13:37;;;;;;;5.53;4.93;;;;;;;14.30;97.77;101553.31;5089774;28;20220;-79
2023/09/05 02:16:05;;;;;;;5.53;4.50;;;;;;;14.27;98.60;101554.38;5089967;28;20207;-79
2023/09/05 02:18:31;;;;;;;5.10;4.60;;;;;;;14.27;99.54;101540.97;5090607;28;20221;-78
2023/09/05 02:21:00;;;;;;;5.53;4.57;;;;;;;14.26;99.92;101549.97;5088131;28;20632;-79
2023/09/05 02:23:26;;;;;;;4.83;3.97;;;;;;;14.25;100.00;101548.25;5091244;28;20196;-78
2023/09/05 02:25:57;;;;;;;4.60;4.20;;;;;;;14.24;100.00;101550.06;5087642;28;20233;-78
2023/09/05 02:28:23;;;;;;;5.67;3.83;;;;;;;14.25;100.00;101546.41;5084310;28;20204;-78
2023/09/05 02:30:50;;;;;;;6.47;4.83;;;;;;;14.25;100.00;101546.41;5088702;28;20619;-79
2023/09/05 02:33:19;;;;;;;5.80;4.43;;;;;;;14.27;100.00;101529.38;5091064;28;20243;-79
2023/09/05 02:35:45;;;;;;;5.37;4.87;;;;;;;14.28;100.00;101531.97;5089305;28;20802;-79
2023/09/05 02:38:13;;;;;;;7.00;4.77;;;;;;;14.29;100.00;101532.84;5091339;28;20226;-79
2023/09/05 02:40:43;;;;;;;4.70;4.20;;;;;;;14.30;100.00;101531.88;5088542;28;20252;-79
2023/09/05 02:43:10;;;;;;;5.17;4.63;;;;;;;14.30;100.00;101526.50;5087186;28;20571;-79
2023/09/05 02:45:36;;;;;;;5.13;4.33;;;;;;;14.30;100.00;101530.06;5087418;28;20209;-78
2023/09/05 02:48:03;;;;;;;5.67;5.13;;;;;;;14.30;100.00;101527.38;5089075;28;20610;-79
2023/09/05 02:50:31;;;;;;;5.97;5.07;;;;;;;14.30;100.00;101526.50;5087544;28;20314;-77
2023/09/05 02:52:57;;;;;;;6.63;5.20;;;;;;;14.29;100.00;101528.34;5087128;28;20212;-79
2023/09/05 02:55:24;;;;;;;7.07;5.13;;;;;;;14.29;100.00;101530.16;5087686;28;20247;-79
2023/09/05 02:57:50;;;;;;;6.37;5.07;;;;;;;14.27;100.00;101529.38;5083842;28;20758;-79
2023/09/05 03:00:20;;;;;;;5.43;4.63;;;;;;;14.24;100.00;101522.41;5091341;28;20228;-79
2023/09/05 03:02:46;;;;;;;6.77;4.67;;;;;;;14.19;100.00;101530.72;5087051;28;20212;-78
2023/09/05 03:05:13;;;;;;;5.53;5.03;;;;;;;14.14;100.00;101535.53;5088769;28;20197;-78
2023/09/05 03:07:41;;;;;;;5.67;4.27;;;;;;;14.10;100.00;101525.13;5091510;28;20205;-78
2023/09/05 03:10:08;;;;;;;6.90;5.13;;;;;;;14.06;100.00;101535.16;5087996;28;20254;-78
2023/09/05 03:12:35;;;;;;;6.07;4.93;;;;;;;14.07;100.00;101536.03;5091871;28;20672;-78
2023/09/05 03:15:01;;;;;;;7.20;5.10;;;;;;;14.05;100.00;101529.91;5085077;28;20219;-78
2023/09/05 03:17:28;;;;;;;6.40;4.87;;;;;;;14.04;100.00;101525.50;5094614;28;20219;-79
2023/09/05 03:19:54;;;;;;;5.93;5.33;;;;;;;14.03;100.00;101531.81;5094128;28;20207;-78
2023/09/05 03:22:20;;;;;;;6.13;5.53;;;;;;;14.03;100.00;101521.97;5094625;28;20211;-78
2023/09/05 03:24:48;;;;;;;6.47;5.60;;;;;;;14.00;100.00;101519.47;5093127;28;20197;-78
2023/09/05 03:27:15;;;;;;;5.47;4.90;;;;;;;13.99;100.00;101515.06;5089644;28;20223;-77
2023/09/05 03:29:42;;;;;;;6.37;4.53;;;;;;;13.99;100.00;101520.44;5092805;28;20195;-77
2023/09/05 03:32:08;;;;;;;7.03;5.30;;;;;;;13.95;100.00;101518.94;5090448;28;20315;-79
2023/09/05 03:34:35;;;;;;;5.20;4.70;;;;;;;13.93;100.00;101517.28;5087805;28;20224;-78
2023/09/05 03:37:01;;;;;;;5.23;4.73;;;;;;;13.92;100.00;101526.28;5091571;28;20246;-78
2023/09/05 03:39:28;;;;;;;5.10;4.67;;;;;;;13.92;100.00;101540.53;5094643;28;20200;-78
2023/09/05 03:41:56;;;;;;;6.40;4.67;;;;;;;13.93;100.00;101538.72;5091670;28;20227;-78
2023/09/05 03:44:22;;;;;;;6.07;4.97;;;;;;;13.92;100.00;101534.31;5092788;28;20565;-78
2023/09/05 03:46:49;;;;;;;6.60;5.90;;;;;;;13.90;100.00;101532.59;5089937;28;20227;-78
2023/09/05 03:49:15;;;;;;;5.80;5.30;;;;;;;13.90;100.00;101529.91;5093373;28;20653;-78
2023/09/05 03:51:41;;;;;;;5.97;4.87;;;;;;;13.90;100.00;101537.94;5092621;28;20220;-78
2023/09/05 03:54:08;;;;;;;6.90;4.93;;;;;;;13.91;100.00;101533.47;5087468;28;20217;-78
2023/09/05 03:56:34;;;;;;;9.67;5.10;;;;;;;13.90;100.00;101534.41;5091451;28;20196;-78
2023/09/05 03:59:02;;;;;;;5.00;4.50;;;;;;;13.92;100.00;101528.97;5089777;28;20211;-78
2023/09/05 04:01:29;;;;;;;4.40;4.00;;;;;;;13.82;100.00;101526.84;5084628;28;20223;-79
2023/09/05 04:03:55;;;;;;;5.10;3.63;;;;;;;13.67;100.00;101527.81;5090774;28;20658;-78
2023/09/05 04:06:21;;;;;;;4.53;3.90;;;;;;;13.59;100.00;101521.25;5088959;28;20606;-76
2023/09/05 04:08:48;;;;;;;4.57;4.17;;;;;;;13.53;100.00;101526.00;5092118;28;20642;-78
2023/09/05 04:11:14;;;;;;;4.50;3.70;;;;;;;13.48;99.82;101527.22;5093635;28;20688;-78
2023/09/05 04:13:41;;;;;;;5.17;3.70;;;;;;;13.44;99.66;101531.91;5087817;28;20211;-79
2023/09/05 04:16:08;;;;;;;5.70;3.40;;;;;;;13.40;99.93;101535.75;5092806;28;20212;-77
2023/09/05 04:18:35;;;;;;;4.33;3.87;;;;;;;13.39;99.45;101538.50;5092850;28;20207;-78
2023/09/05 04:21:02;;;;;;;4.90;3.67;;;;;;;13.36;99.60;101542.22;5086076;28;20688;-78
2023/09/05 04:23:29;;;;;;;4.93;4.53;;;;;;;13.36;99.51;101541.38;5088880;28;20200;-79
2023/09/05 04:25:59;;;;;;;5.70;4.43;;;;;;;13.32;100.00;101540.69;5085426;28;20208;-76
2023/09/05 04:28:26;;;;;;;5.50;3.77;;;;;;;13.30;99.97;101544.41;5084899;28;20247;-78
2023/09/05 04:30:55;;;;;;;6.57;5.17;;;;;;;13.28;100.00;101538.28;5089374;28;20684;-77
2023/09/05 04:33:25;;;;;;;6.87;5.17;;;;;;;13.30;100.00;101536.38;5088227;28;20210;-76
2023/09/05 04:35:52;;;;;;;7.07;5.40;;;;;;;13.33;100.00;101545.09;5086876;28;20224;-77
2023/09/05 04:38:19;;;;;;;5.77;5.17;;;;;;;13.36;100.00;101547.59;5089315;28;20217;-78
2023/09/05 04:40:45;;;;;;;5.80;5.20;;;;;;;13.41;100.00;101540.16;5091708;28;20235;-77
2023/09/05 04:43:11;;;;;;;4.40;3.67;;;;;;;13.44;100.00;101539.94;5088359;28;20208;-77
2023/09/05 04:45:38;;;;;;;5.00;3.40;;;;;;;13.36;100.00;101536.88;5094035;28;20196;-77
2023/09/05 04:48:05;;;;;;;5.33;4.27;;;;;;;13.33;100.00;101546.91;5092455;28;20209;-78
2023/09/05 04:50:33;;;;;;;5.97;4.50;;;;;;;13.32;100.00;101534.47;5086390;28;20224;-76
2023/09/05 04:53:00;;;;;;;5.53;5.03;;;;;;;13.31;100.00;101536.28;5082706;28;20202;-77
2023/09/05 04:55:26;;;;;;;6.37;5.37;;;;;;;13.32;100.00;101534.47;5086483;28;20224;-78
2023/09/05 04:57:53;;;;;;;8.47;5.70;;;;;;;13.34;100.00;101529.91;5091832;28;20207;-78
2023/09/05 05:00:23;;;;;;;6.43;5.73;;;;;;;13.37;100.00;101527.03;5092743;28;20610;-78
2023/09/05 05:02:50;;;;;;;6.90;5.70;;;;;;;13.39;100.00;101522.47;5091825;28;20291;-78
2023/09/05 05:05:16;;;;;;;6.37;5.67;;;;;;;13.41;100.00;101532.13;5090937;28;20200;-79
2023/09/05 05:07:45;;;;;;;6.63;6.00;;;;;;;13.44;100.00;101533.72;5087550;28;20199;-78
2023/09/05 05:10:12;;;;;;;7.33;5.57;;;;;;;13.49;100.00;101528.97;5090210;28;20237;-79
2023/09/05 05:12:39;;;;;;;7.50;5.23;;;;;;;13.51;100.00;101532.41;5081769;28;20828;-80
2023/09/05 05:15:06;;;;;;;6.87;5.87;;;;;;;13.51;100.00;101540.44;5083153;28;20228;-79
2023/09/05 05:17:33;;;;;;;7.03;5.40;;;;;;;13.51;100.00;101535.94;5092669;28;20566;-79
2023/09/05 05:20:00;;;;;;;7.00;6.13;;;;;;;13.54;100.00;101535.75;5089972;28;20211;-78
2023/09/05 05:22:27;;;;;;;10.87;5.60;;;;;;;13.60;100.00;101531.84;5091955;28;20208;-78
2023/09/05 05:24:54;;;;;;;8.43;4.60;;;;;;;13.64;100.00;101527.13;5086461;28;20204;-78
2023/09/05 05:27:21;;;;;;;5.33;4.70;;;;;;;13.60;100.00;101526.50;5087078;28;20204;-80
2023/09/05 05:29:47;;;;;;;6.20;5.60;;;;;;;13.58;100.00;101533.75;5081262;28;20208;-79
2023/09/05 05:32:14;;;;;;;6.97;6.00;;;;;;;13.59;100.00;101530.13;5087142;28;20200;-78
2023/09/05 05:34:40;;;;;;;9.80;6.57;;;;;;;13.62;100.00;101521.88;5087311;28;20231;-79
2023/09/05 05:37:07;;;;;;;9.33;7.30;;;;;;;13.68;100.00;101516.16;5088150;28;20207;-78
2023/09/05 05:39:33;;;;;;;8.47;7.60;;;;;;;13.76;100.00;101516.56;5089014;28;20246;-77
2023/09/05 05:42:01;;;;;;;7.97;6.53;;;;;;;13.84;100.00;101519.59;5093211;28;20219;-78
2023/09/05 05:44:28;;;;;;;9.67;5.87;;;;;;;13.95;100.00;101512.72;5090748;28;20197;-78
2023/09/05 05:46:58;;;;;;;9.20;6.13;;;;;;;14.04;100.00;101512.09;5089209;28;20215;-79
2023/09/05 05:49:28;;;;;;;9.17;6.30;;;;;;;14.13;100.00;101516.88;5090907;28;20231;-78
2023/09/05 05:51:55;;;;;;;9.70;6.27;;;;;;;14.23;100.00;101521.53;5084941;28;20310;-79
2023/09/05 05:54:21;;;;;;;12.00;5.77;;;;;;;14.34;100.00;101522.66;5089255;28;20204;-77
2023/09/05 05:56:48;;;;;;;11.30;6.13;;;;;;;14.44;100.00;101524.69;5087946;28;20251;-78
2023/09/05 05:59:15;;;;;;;10.53;6.07;;;;;;;14.56;100.00;101517.63;5089523;28;20204;-80
2023/09/05 06:01:42;;;;;;;12.87;5.70;;;;;;;14.69;100.00;101525.75;5086040;28;20217;-77
2023/09/05 06:04:08;;;;;;;15.00;5.73;;;;;;;14.80;100.00;101521.38;5087077;28;20216;-78
2023/09/05 06:06:36;;;;;;;7.77;4.70;;;;;;;14.93;100.00;101516.03;5090764;28;20212;-77
2023/09/05 06:09:02;;;;;;;6.60;4.83;;;;;;;15.08;100.00;101519.50;5088606;28;20646;-77
2023/09/05 06:11:29;;;;;;;6.87;4.43;;;;;;;15.18;100.00;101516.09;5090353;28;20224;-79
2023/09/05 06:13:55;;;;;;;7.07;4.27;;;;;;;15.33;100.00;101510.63;5088970;28;20577;-79
2023/09/05 06:16:23;;;;;;;6.47;4.10;;;;;;;15.46;100.00;101516.84;5089787;28;20718;-77
2023/09/05 06:18:50;;;;;;;7.27;4.47;;;;;;;15.62;100.00;101517.50;5087294;28;20199;-77
2023/09/05 06:21:16;;;;;;;7.30;3.73;;;;;;;15.76;100.00;101516.56;5089970;28;20226;-78
2023/09/05 06:23:43;;;;;;;7.93;4.00;;;;;;;15.91;100.00;101519.00;5086617;28;20221;-78
2023/09/05 06:26:09;;;;;;;10.53;4.57;;;;;;;16.06;100.00;101519.72;5089959;28;20210;-79
2023/09/05 06:28:36;;;;;;;8.43;3.90;;;;;;;16.21;100.00;101515.91;5091511;28;20203;-77
2023/09/05 06:31:02;;;;;;;7.67;3.90;;;;;;;16.35;100.00;101522.09;5089580;28;20228;-77
2023/09/05 06:33:30;;;;;;;9.33;4.30;;;;;;;16.51;100.00;101525.38;5089781;28;20211;-80
2023/09/05 06:35:56;;;;;;;7.63;3.80;;;;;;;16.67;100.00;101521.44;5088628;28;20232;-79
2023/09/05 06:38:23;;;;;;;7.20;3.90;;;;;;;16.84;99.75;101520.16;5087738;28;20216;-78
2023/09/05 06:40:50;;;;;;;4.20;3.37;;;;;;;17.00;99.15;101518.06;5089705;28;20229;-78
2023/09/05 06:43:16;;;;;;;4.57;3.40;;;;;;;17.17;98.34;101522.16;5086876;28;20222;-78
2023/09/05 06:45:43;;;;;;;5.37;3.43;;;;;;;17.36;98.17;101516.19;5090155;28;20197;-78
2023/09/05 06:48:09;;;;;;;4.50;3.60;;;;;;;17.55;97.34;101515.59;5088865;28;20232;-78
2023/09/05 06:50:37;;;;;;;3.80;3.20;;;;;;;17.76;97.72;101527.38;5082267;28;20715;-79
2023/09/05 06:53:04;;;;;;;3.73;3.43;;;;;;;17.93;97.24;101526.88;5088375;28;20213;-78
2023/09/05 06:55:34;;;;;;;5.40;3.50;;;;;;;18.13;96.13;101527.13;5088342;28;20230;-78
2023/09/05 06:58:01;;;;;;;8.10;3.10;;;;;;;18.34;93.86;101517.28;5082117;28;20201;-79
2023/09/05 07:00:27;;;;;;;4.43;2.70;;;;;;;18.53;88.79;101519.31;5089053;28;20230;-78
2023/09/05 07:02:54;;;;;;;3.53;2.60;;;;;;;18.68;86.12;101520.78;5083514;28;20207;-78
2023/09/05 07:05:21;;;;;;;6.77;2.10;;;;;;;18.88;82.76;101521.81;5089059;28;20206;-78
2023/09/05 07:07:48;;;;;;;3.00;2.40;;;;;;;19.08;80.96;101518.28;5090406;28;20724;-78
2023/09/05 07:10:15;;;;;;;2.40;1.87;;;;;;;19.26;79.34;101508.59;5087788;28;20229;-78
2023/09/05 07:12:42;;;;;;;3.87;1.90;;;;;;;19.45;76.26;101517.81;5089054;28;20207;-79
2023/09/05 07:15:09;;;;;;;4.53;1.90;;;;;;;19.63;75.18;101517.09;5088612;28;20236;-78
2023/09/05 07:17:35;;;;;;;5.27;2.13;;;;;;;19.83;75.11;101515.34;5090168;28;20213;-78
2023/09/05 07:20:02;;;;;;;2.80;2.00;;;;;;;20.03;72.62;101500.91;5088225;28;20458;-78
2023/09/05 07:22:28;;;;;;;2.77;1.47;;;;;;;20.23;71.35;101503.66;5088162;28;20228;-78
2023/09/05 07:24:56;;;;;;;2.17;1.50;;;;;;;20.44;70.50;101512.53;5085621;28;20220;-78
2023/09/05 07:27:23;;;;;;;3.13;1.60;;;;;;;20.61;69.02;101505.56;5090518;28;20703;-78
2023/09/05 07:29:49;;;;;;;2.00;1.40;;;;;;;20.78;67.53;101510.31;5088166;28;21021;-79
2023/09/05 07:32:16;;;;;;;2.10;1.73;;;;;;;20.97;66.30;101506.72;5088351;28;20204;-78
2023/09/05 07:34:42;;;;;;;2.17;1.33;;;;;;;21.10;64.88;101515.44;5088179;28;20211;-79
2023/09/05 07:37:09;;;;;;;2.40;1.67;;;;;;;21.26;64.24;101523.84;5089453;28;20585;-79
2023/09/05 07:39:35;;;;;;;2.33;1.48;;;;;;;21.42;63.70;101524.09;5087533;28;20589;-78
2023/09/05 07:42:05;;;;;;;1.63;1.20;;;;;;;21.65;61.73;101516.47;5087692;28;20322;-79
2023/09/05 07:44:31;;;;;;;1.65;1.30;;;;;;;21.84;61.93;101526.41;5085497;28;20291;-78
2023/09/05 07:46:57;;;;;;;2.95;1.50;;;;;;;22.00;61.85;101521.22;5086179;28;20214;-78
2023/09/05 07:49:24;;;;;;;2.05;1.45;;;;;;;22.23;60.46;101510.78;5089362;28;20211;-78
2023/09/05 07:51:50;;;;;;;2.22;1.20;;;;;;;22.36;59.19;101505.03;5082414;28;20227;-79
2023/09/05 07:54:19;;;;;;;2.45;1.65;;;;;;;22.50;58.18;101513.50;5087313;28;20212;-79
2023/09/05 07:56:45;;;;;;;2.22;1.50;;;;;;;22.67;58.19;101513.66;5087127;28;20242;-78
2023/09/05 07:59:13;;;;;;;1.75;1.30;;;;;;;22.82;57.13;101513.00;5086732;28;20208;-78
2023/09/05 08:01:39;;;;;;;2.25;1.40;;;;;;;22.98;56.55;101512.28;5088691;28;20242;-79
2023/09/05 08:04:06;;;;;;;3.45;1.67;;;;;;;23.14;56.40;101519.69;5088298;28;20196;-78
2023/09/05 08:06:33;;;;;;;2.78;1.70;;;;;;;23.28;55.90;101516.44;5087584;28;20211;-79
2023/09/05 08:08:59;;;;;;;3.67;1.40;;;;;;;23.43;55.32;101514.00;5090342;28;20662;-79
2023/09/05 08:11:26;;;;;;;2.22;1.50;;;;;;;23.59;55.12;101516.84;5092630;28;20224;-78
2023/09/05 08:13:52;;;;;;;4.50;1.50;;;;;;;23.74;54.23;101520.66;5090944;28;20207;-79
2023/09/05 08:16:20;;;;;;;2.08;1.45;;;;;;;23.85;53.69;101523.09;5088028;28;20227;-79
2023/09/05 08:18:46;;;;;;;2.63;1.55;;;;;;;23.95;53.29;101523.00;5091875;28;20833;-79
2023/09/05 08:21:16;;;;;;;2.63;1.23;;;;;;;24.08;52.17;101519.81;5087624;28;20324;-80
2023/09/05 08:23:43;;;;;;;1.70;1.27;;;;;;;24.22;51.59;101524.63;5090668;28;20226;-79
2023/09/05 08:26:10;;;;;;;1.95;1.30;;;;;;;24.30;51.46;101519.25;5091129;28;20214;-78
2023/09/05 08:28:43;;;;;;;2.30;1.55;;;;;;;24.43;52.67;101518.78;5093566;28;20258;-79
2023/09/05 08:31:10;;;;;;;1.75;1.42;;;;;;;24.56;52.12;101517.25;5092064;28;20246;-79
2023/09/05 08:33:37;;;;;;;1.40;1.10;;;;;;;24.70;49.94;101514.94;5089075;28;20204;-80
2023/09/05 08:36:05;;;;;;;3.00;1.33;;;;;;;24.81;50.44;101514.59;5086772;28;20220;-79
2023/09/05 08:38:31;;;;;;;2.00;1.60;;;;;;;24.96;49.98;101514.78;5089629;28;20200;-80
2023/09/05 08:41:00;;;;;;;3.83;1.45;;;;;;;25.09;50.63;101520.56;5092163;28;20223;-80
2023/09/05 08:43:27;;;;;;;2.60;1.40;;;;;;;25.20;49.56;101515.66;5091236;28;20676;-79
2023/09/05 08:45:55;;;;;;;2.58;1.30;;;;;;;25.28;49.28;101522.97;5090712;28;20212;-79
2023/09/05 08:48:22;;;;;;;2.55;1.58;;;;;;;25.38;49.22;101517.34;5091609;28;20208;-79
2023/09/05 08:50:50;;;;;;;2.72;1.60;;;;;;;25.51;49.02;101521.22;5091056;28;20242;-79
2023/09/05 08:53:22;;;;;;;2.88;1.48;;;;;;;25.58;47.99;101511.34;5091553;28;20873;-79
2023/09/05 08:55:50;;;;;;;2.47;1.40;;;;;;;25.67;48.06;101501.28;5084358;28;20208;-79
2023/09/05 08:58:18;;;;;;;1.77;1.10;;;;;;;25.73;47.53;101508.78;5088312;28;20200;-78
2023/09/05 09:00:45;;;;;;;2.05;1.35;;;;;;;25.82;47.12;101504.97;5091372;28;20224;-79
2023/09/05 09:03:12;;;;;;;2.30;1.30;;;;;;;25.91;47.58;101503.09;5089325;28;20346;-80
2023/09/05 09:05:38;;;;;;;4.78;1.30;;;;;;;25.99;46.13;101502.19;5092719;28;20207;-80
2023/09/05 09:08:07;;;;;;;2.60;1.30;;;;;;;26.06;46.27;101505.91;5092195;28;20242;-79
2023/09/05 09:10:33;;;;;;;3.33;1.08;;;;;;;26.13;45.41;101505.03;5091777;28;20276;-80
2023/09/05 09:13:15;;;;;;;2.70;1.17;;;;;;;26.19;46.60;101498.84;5088065;28;20200;-79
2023/09/05 09:15:43;;;;;;;1.42;1.33;;;;;;;26.30;46.06;101499.53;5087252;28;20680;-79
2023/09/05 09:18:12;;;;;;;2.25;1.17;;;;;;;26.39;45.68;101490.25;5087082;28;20244;-79
2023/09/05 09:20:42;;;;;;;3.20;1.20;;;;;;;26.46;45.60;101497.53;5086465;28;20638;-79
2023/09/05 09:23:10;;;;;;;3.28;1.45;;;;;;;26.53;45.04;101497.66;5090846;28;20208;-79
2023/09/05 09:25:47;;;;;;;2.00;1.13;;;;;;;26.61;45.08;101490.28;5087665;28;20199;-79
2023/09/05 09:28:22;;;;;;;1.45;1.00;;;;;;;26.67;45.11;101485.97;5085777;28;20203;-79
2023/09/05 09:30:56;;;;;;;4.00;1.13;;;;;;;26.75;44.73;101496.81;5091142;28;20223;-79
2023/09/05 09:33:24;;;;;;;1.45;1.00;;;;;;;26.85;44.36;101500.19;5089269;28;20671;-79
2023/09/05 09:36:04;;;;;;;1.20;1.10;;;;;;;26.90;45.33;101489.53;5085751;28;20593;-80
2023/09/05 09:38:32;;;;;;;1.92;1.25;;;;;;;26.98;43.91;101488.66;5089274;28;20257;-79
2023/09/05 09:41:01;;;;;;;1.85;1.20;;;;;;;27.01;44.39;101482.81;5092310;28;20239;-80
2023/09/05 09:43:26;;;;;;;1.60;1.13;;;;;;;27.04;44.41;101478.88;5091722;28;20675;-80
2023/09/05 09:45:53;;;;;;;2.30;1.20;;;;;;;27.07;44.11;101489.41;5093634;28;20200;-80
2023/09/05 09:48:22;;;;;;;3.72;1.40;;;;;;;27.08;44.20;101483.75;5080795;28;20573;-79
2023/09/05 09:50:49;;;;;;;1.42;1.05;;;;;;;27.13;43.21;101485.94;5089091;28;21415;-79
2023/09/05 09:53:19;;;;;;;1.27;1.15;;;;;;;27.15;43.32;101486.63;5089510;28;20200;-79
2023/09/05 09:55:52;;;;;;;1.42;1.15;;;;;;;27.16;43.55;101477.38;5088420;28;20228;-79
2023/09/05 09:58:23;;;;;;;1.20;0.98;;;;;;;27.18;43.22;101475.31;5089093;28;20203;-79
2023/09/05 10:00:51;;;;;;;1.65;1.02;;;;;;;27.22;43.55;101471.19;5089974;28;20602;-79
2023/09/05 10:03:19;;;;;;;1.45;1.20;;;;;;;27.21;43.36;101474.94;5087758;28;20196;-79
2023/09/05 10:05:46;;;;;;;1.35;1.05;;;;;;;27.23;43.31;101483.81;5091587;28;20555;-79
2023/09/05 10:08:13;;;;;;;4.43;1.20;;;;;;;27.26;43.07;101475.22;5091504;28;20204;-80
2023/09/05 10:10:41;;;;;;;1.52;1.00;;;;;;;27.29;44.08;101483.91;5089631;28;20239;-79
2023/09/05 10:13:10;;;;;;;1.27;0.98;;;;;;;27.39;42.75;101471.88;5088003;28;20397;-79
2023/09/05 10:15:37;;;;;;;1.42;1.00;;;;;;;27.43;42.92;101468.53;5090382;28;20211;-79
2023/09/05 10:18:07;;;;;;;1.58;0.90;;;;;;;27.49;42.33;101462.34;5089570;28;20346;-79
2023/09/05 10:20:35;;;;;;;2.25;0.90;;;;;;;27.58;43.05;101458.50;5086004;28;20228;-80
2023/09/05 10:23:05;;;;;;;2.40;1.13;;;;;;;27.67;42.66;101466.63;5090793;28;20974;-80
2023/09/05 10:25:32;;;;;;;1.42;1.10;;;;;;;27.75;42.38;101461.06;5089493;28;20211;-79
2023/09/05 10:27:59;;;;;;;1.55;1.02;;;;;;;27.82;41.54;101451.03;5088587;28;20219;-80
2023/09/05 10:30:28;;;;;;;2.17;1.10;;;;;;;27.84;42.04;101441.59;5091191;28;20227;-80
2023/09/05 10:32:55;;;;;;;1.17;1.05;;;;;;;27.87;41.97;101443.09;5088763;28;20211;-80
2023/09/05 10:35:22;;;;;;;0.85;0.80;;;;;;;27.94;42.50;101442.16;5091886;28;20247;-80
2023/09/05 10:37:56;;;;;;;1.85;0.98;;;;;;;28.05;41.53;101432.59;5089538;28;20315;-79
2023/09/05 10:40:33;;;;;;;1.80;1.33;;;;;;;28.11;41.83;101433.72;5091385;28;20591;-80
2023/09/05 10:43:02;;;;;;;1.15;0.95;;;;;;;28.18;40.81;101423.66;5090904;28;20196;-81
2023/09/05 10:45:38;;;;;;;1.73;1.00;;;;;;;28.25;41.73;101422.75;5088007;28;20676;-79
2023/09/05 10:48:49;;;;;;;1.65;1.15;;;;;;;28.29;40.95;101425.94;5087725;28;20211;-79
2023/09/05 10:51:37;;;;;;;1.25;1.02;;;;;;;28.38;41.34;101419.28;5086264;28;20224;-80
2023/09/05 10:54:34;;;;;;;1.90;1.02;;;;;;;28.46;40.94;101423.81;5085192;28;20199;-79
2023/09/05 10:57:02;;;;;;;2.05;1.10;;;;;;;28.53;41.08;101416.47;5082371;28;20247;-80
2023/09/05 10:59:32;;;;;;;3.10;1.10;;;;;;;28.61;41.53;101414.47;5086998;28;20196;-80
2023/09/05 11:02:05;;;;;;;1.10;0.98;;;;;;;28.71;41.24;101408.63;5084741;28;20231;-80
2023/09/05 11:04:54;;;;;;;1.05;0.90;;;;;;;28.77;40.73;101409.75;5089487;28;20265;-81
2023/09/05 11:10:55;;;;;;;1.33;0.85;;;;;;;28.92;39.59;101408.63;5089193;28;20637;-81
2023/09/05 11:16:05;;;;;;;3.72;1.63;;;;;;;29.01;40.80;101415.69;5081412;28;20234;-80
2023/09/05 11:18:52;;;;;;;3.88;0.80;;;;;;;29.07;41.21;101407.69;5090926;28;20200;-81
2023/09/05 11:21:23;;;;;;;1.20;0.82;;;;;;;29.09;39.96;101411.94;5087456;28;20220;-81
2023/09/05 11:23:51;;;;;;;1.73;1.10;;;;;;;29.12;39.37;101406.03;5088312;28;20211;-80
2023/09/05 11:26:18;;;;;;;1.27;0.80;;;;;;;29.20;39.79;101414.09;5088971;28;20612;-80
2023/09/05 11:28:45;;;;;;;1.13;1.02;;;;;;;29.27;40.01;101395.81;5083184;28;20585;-80
2023/09/05 11:31:12;;;;;;;1.40;0.80;;;;;;;29.41;39.57;101407.72;5089679;28;20707;-79